createdAt,value
2022-10-14T00:02:23.845Z,71.10
2022-10-14T00:04:52.290Z,71.20
2022-10-14T00:07:19.502Z,71.20
2022-10-14T00:09:46.677Z,71.30
2022-10-14T00:12:13.817Z,71.30
2022-10-14T00:14:40.802Z,71.30
2022-10-14T00:17:07.694Z,71.30
2022-10-14T00:19:34.669Z,71.30
2022-10-14T00:22:01.982Z,71.40
2022-10-14T00:24:28.922Z,71.40
2022-10-14T00:26:55.813Z,71.50
2022-10-14T00:29:22.748Z,71.50
2022-10-14T00:31:51.758Z,71.50
2022-10-14T00:34:18.752Z,71.60
2022-10-14T00:36:45.611Z,71.60
2022-10-14T00:39:15.712Z,71.60
2022-10-14T00:41:42.812Z,71.60
2022-10-14T00:44:12.995Z,71.60
2022-10-14T00:46:44.086Z,71.60
2022-10-14T00:49:19.111Z,71.60
2022-10-14T00:51:48.857Z,72.40
2022-10-14T00:54:16.911Z,71.60
2022-10-14T00:56:44.924Z,71.60
2022-10-14T00:59:12.100Z,71.60
2022-10-14T01:01:39.002Z,71.70
2022-10-14T01:04:05.831Z,71.70
2022-10-14T01:06:48.184Z,71.80
2022-10-14T01:09:33.758Z,71.70
2022-10-14T01:12:26.852Z,71.70
2022-10-14T01:14:53.741Z,71.80
2022-10-14T01:17:26.962Z,71.80
2022-10-14T01:20:20.162Z,71.80
2022-10-14T01:22:53.237Z,71.70
2022-10-14T01:25:25.973Z,71.80
2022-10-14T01:27:52.926Z,71.80
2022-10-14T01:30:21.345Z,71.80
2022-10-14T01:32:50.941Z,71.90
2022-10-14T01:35:39.854Z,71.80
2022-10-14T01:38:11.646Z,71.80
2022-10-14T01:40:44.866Z,71.80
2022-10-14T01:43:13.539Z,71.80
2022-10-14T01:45:42.020Z,71.80
2022-10-14T01:48:12.998Z,71.80
2022-10-14T01:50:40.155Z,71.70
2022-10-14T01:53:09.280Z,71.70
2022-10-14T01:55:38.164Z,71.70
2022-10-14T01:58:05.806Z,71.70
2022-10-14T02:00:32.732Z,71.70
2022-10-14T02:03:02.236Z,71.70
2022-10-14T02:05:35.041Z,71.70
2022-10-14T02:08:09.122Z,71.60
2022-10-14T02:10:50.621Z,71.50
2022-10-14T02:13:27.133Z,71.60
2022-10-14T02:16:12.756Z,71.60
2022-10-14T02:18:48.753Z,71.50
2022-10-14T02:21:18.998Z,71.50
2022-10-14T02:24:02.084Z,71.50
2022-10-14T02:26:30.204Z,71.50
2022-10-14T02:28:59.779Z,71.60
2022-10-14T02:31:27.968Z,71.70
2022-10-14T02:33:57.888Z,71.50
2022-10-14T02:36:25.705Z,71.60
2022-10-14T02:38:53.642Z,71.50
2022-10-14T02:41:22.244Z,71.50
2022-10-14T02:43:49.080Z,71.50
2022-10-14T02:46:20.113Z,71.50
2022-10-14T02:48:47.089Z,71.60
2022-10-14T02:51:13.977Z,71.60
